Reese River Valley, Nevada Weather observations

Data are for 10 minute period ending at time listed.
 Day   Time   Solar   Ave.   Ave.  Ave.  Vector  Max.   Baro.   Total    
  of    of     Rad.   Air    Rel.  Wind   Wind   Wind  Press.  Precip.   
Year   Day            Temp.  Hum.  Speed  Dir.   Gust                    
2016   (PST)  Kw/m2    F      %     mph   deg.    mph    mb.     in.     
-------------------------------------------------------------------------
  44    6:30   0.00   26.9    83    8.6   215    10.8   821.2    0.00 
  44    6:40   0.00   26.7    83    9.1   220    13.7   821.2    0.00 
  44    6:50   0.01   27.5    81   11.6   233    13.5   821.3    0.00 
  44    7:00   0.02   27.6    79    7.8   198    12.6   821.4    0.00 
  44    7:10   0.02   27.7    80    6.8   181     8.9   821.6    0.00 
  44    7:20   0.03   28.2    77    8.4   214    11.2   821.7    0.00 
  44    7:30   0.09   27.6    80   10.8   233    12.1   821.7    0.00 
  44    7:40   0.17   29.5    78    9.6   227    11.3   821.8    0.00 
  44    7:50   0.18   31.5    74    7.2   207     9.8   821.8    0.00 
  44    8:00   0.14   32.1    73    9.3   236    13.1   821.8    0.00 
  44    8:10   0.12   32.2    72    9.9   236    12.9   821.8    0.00 
  44    8:20   0.12   33.2    68   10.7   225    13.3   821.8    0.00 
  44    8:30   0.14   33.4    68    8.2   218    10.7   821.9    0.00 
  44    8:40   0.34   34.5    67    7.7   218     9.4   822.0    0.00 
  44    8:50   0.43   36.9    64    7.3   221     8.8   822.0    0.00 
  44    9:00   0.43   38.8    62    5.8   216     7.6   822.1    0.00 
  44    9:10   0.48   41.0    58    5.6   225     7.5   822.1    0.00 
  44    9:20   0.38   41.3    57    5.8   232     9.3   822.0    0.00 
  44    9:30   0.46   41.0    58    7.0   234     9.0   822.0    0.00 
  44    9:40   0.48   41.0    59    6.8   227     8.6   822.0    0.00 
  44    9:50   0.55   41.5    58    6.7   215     8.1   821.9    0.00 
  44   10:00   0.57   42.6    56    7.4   220     9.2   821.9    0.00 
  44   10:10   0.59   44.6    50    6.1   223     7.1   822.0    0.00 
  44   10:20   0.62   46.1    49    4.6   224     5.6   822.0    0.00 
  44   10:30   0.64   47.4    48    4.3   243     5.7   822.1    0.00 
  44   10:40   0.65   48.7    45    2.1   164     3.3   822.2    0.00 
  44   10:50   0.67   48.1    42    2.9   119     3.8   822.2    0.00 
  44   11:00   0.68   50.8    30    2.7   102     4.2   822.2    0.00 
  44   11:10   0.70   51.7    25    2.4   102     3.6   822.0    0.00 
  44   11:20   0.71   50.9    26    5.0    84     7.1   822.0    0.00 
  44   11:30   0.72   49.0    27    5.8    90     7.0   822.0    0.00 
  44   11:40   0.72   50.4    22    5.7    85     7.1   821.9    0.00 
  44   11:50   0.73   50.6    26    3.6    80     5.9   821.9    0.00 
  44   12:00   0.73   51.7    23    1.5    75     2.2   821.9    0.00 
  44   12:10   0.73   53.7    18    1.7    85     3.3   821.8    0.00 
  44   12:20   0.73   51.0    29    3.4    89     4.7   821.7    0.00 
  44   12:30   0.72   50.6    21    4.4   102     5.5   821.4    0.00 
  44   12:40   0.72   51.6    22    3.5   104     4.2   821.3    0.00 
  44   12:50   0.71   51.0    24    3.5   105     4.4   821.2    0.00 
  44   13:00   0.70   52.1    21    3.0   115     4.1   821.2    0.00 
  44   13:10   0.69   51.9    23    3.2   108     4.9   821.0    0.00 
  44   13:20   0.68   52.5    18    3.1   116     4.1   820.9    0.00 
  44   13:30   0.66   52.6    18    3.5   115     4.9   820.8    0.00 
  44   13:40   0.65   53.6    16    2.9   113     4.2   820.7    0.00 
  44   13:50   0.63   53.4    15    3.2    90     4.1   820.6    0.00 
  44   14:00   0.61   54.2    17    2.6    96     4.9   820.5    0.00 
  44   14:10   0.59   52.1    18    3.9   104     5.3   820.5    0.00 
  44   14:20   0.56   52.4    18    3.3   103     4.0   820.5    0.00 
  44   14:30   0.54   52.1    19    3.1    90     4.0   820.5    0.00 
  44   14:40   0.51   52.6    19    3.4    89     4.2   820.4    0.00 
  44   14:50   0.48   52.7    18    2.9    90     4.0   820.3    0.00 
  44   15:00   0.46   52.2    18    3.7   125     5.3   820.0    0.00 
  44   15:10   0.43   53.4    17    2.9   122     4.2   820.0    0.00 
  44   15:20   0.39   53.1    17    3.1   106     3.7   819.8    0.00 
  44   15:30   0.36   53.8    16    2.9   113     4.2   819.7    0.00 
  44   15:40   0.33   53.1    20    2.1    99     3.9   819.6    0.00 
  44   15:50   0.29   52.9    16    2.7   122     3.4   819.6    0.00 
  44   16:00   0.26   54.4    15    1.5   136     2.9   819.6    0.00 
  44   16:10   0.23   55.5    18    0.2   184     2.6   819.5    0.00 
  44   16:20   0.20   54.7    24    1.9   196     3.3   819.5    0.00 
  44   16:30   0.16   51.7    25    3.7   211     4.4   819.4    0.00 
  44   16:40   0.13   51.2    29    4.3   190     5.0   819.3    0.00 
  44   16:50   0.10   49.8    30    4.1   191     5.3   819.3    0.00 
  44   17:00   0.07   50.1    26    2.5   203     3.7   819.4    0.00 
  44   17:10   0.01   47.7    31    2.1   207     2.5   819.5    0.00 
  44   17:20   0.01   45.3    34    1.9   184     3.0   819.6    0.00 
  44   17:30   0.01   40.4    48    4.8   140     6.8   819.6    0.00 
  44   17:40   0.00   35.0    62    5.4   151     7.0   819.8    0.00 
  44   17:50   0.00   33.0    69    7.2   161     9.3   820.1    0.00 
  44   18:00   0.00   32.5    70    6.2   163     7.5   820.3    0.00 
  44   18:10   0.00   34.1    64    6.4   166     8.8   820.4    0.00 
  44   18:20   0.00   34.8    61    5.5   192    10.6   820.4    0.00 
  44   18:30   0.00   35.8    57    4.7   219     8.2   820.3    0.00 
  44   18:40   0.00   35.0    61    6.6   227     9.5   820.6    0.00 
  44   18:50   0.00   34.6    64   10.0   226    12.3   820.7    0.00 
  44   19:00   0.00   34.2    66    8.6   210    10.9   821.0    0.00 
  44   19:10   0.00   31.9    72    6.3   192     7.9   821.0    0.00 
  44   19:20   0.00   31.7    71    5.8   203     6.9   820.9    0.00 
  44   19:30   0.00   30.9    72    5.6   184     7.0   821.1    0.00 
  44   19:40   0.00   31.1    73    4.9   190     6.5   821.3    0.00 
  44   19:50   0.00   31.1    74    5.2   174     6.7   821.6    0.00 
  44   20:00   0.00   31.3    73    3.8   290     9.9   822.1    0.00 
  44   20:10   0.00   32.8    68    2.7   274     4.5   822.3    0.00 
  44   20:20   0.00   31.8    71    5.9   205     8.3   822.3    0.00 
  44   20:30   0.00   29.4    78    5.9   180     7.8   822.2    0.00 
  44   20:40   0.00   29.6    80    6.5   180     8.3   822.2    0.00 
  44   20:50   0.00   28.9    81    7.9   196    10.9   821.9    0.00 
  44   21:00   0.00   29.2    82    9.4   236    11.2   822.0    0.00 
  44   21:10   0.00   29.8    80    8.9   226    10.9   821.9    0.00 
  44   21:20   0.00   29.0    81    7.3   193     9.1   821.9    0.00 
  44   21:30   0.00   29.3    79    7.7   172     9.1   821.7    0.00 
  44   21:40   0.00   31.2    74    8.5   206    10.5   821.7    0.00 
  44   21:50   0.00   30.3    78    9.0   225    11.1   821.8    0.00 
  44   22:00   0.00   29.3    81    9.3   228    12.1   821.5    0.00 
  44   22:10   0.00   29.3    82   10.0   236    13.2   821.4    0.00 
  44   22:20   0.00   29.3    81    9.9   232    12.6   821.6    0.00 
  44   22:30   0.00   29.7    80   11.3   229    14.0   821.6    0.00 
  44   22:40   0.00   29.4    79    9.6   221    12.4   821.4    0.00 
  44   22:50   0.00   29.1    80   10.8   234    13.5   821.5    0.00 
  44   23:00   0.00   29.2    80   12.6   237    15.0   821.4    0.00 
  44   23:10   0.00   29.4    80   12.3   237    15.2   821.3    0.00 
  44   23:20   0.00   29.5    78   12.0   232    14.7   821.4    0.00 
  44   23:30   0.00   29.7    77   11.2   224    13.8   821.3    0.00 
  44   23:40   0.00   29.6    78   10.6   228    13.1   821.4    0.00 
  44   23:50   0.00   29.2    79   11.4   227    13.1   821.4    0.00 
  45    0:00   0.00   30.2    76   11.9   220    14.5   821.5    0.00 
  45    0:10   0.00   31.0    74   10.9   214    13.3   821.4    0.00 
  45    0:20   0.00   30.3    76    9.9   222    12.6   821.4    0.00 
  45    0:30   0.00   29.6    77   11.2   223    13.3   821.4    0.00 
  45    0:40   0.00   30.1    74   10.6   224    12.3   821.3    0.00 
  45    0:50   0.00   29.6    75    8.0   214    11.2   821.2    0.00 
  45    1:00   0.00   28.6    78    8.7   227    11.4   821.1    0.00 
  45    1:10   0.00   28.3    79    9.4   238    11.1   821.2    0.00 
  45    1:20   0.00   28.3    78    8.7   227    10.5   821.4    0.00 
  45    1:30   0.00   28.2    78    6.6   225     8.2   821.5    0.00 
  45    1:40   0.00   27.7    81    7.0   221     8.9   821.6    0.00 
  45    1:50   0.00   28.1    80    8.8   226    11.0   821.4    0.00 
  45    2:00   0.00   28.1    80    9.5   235    12.3   821.1    0.00 
  45    2:10   0.00   27.9    80    8.1   215    11.5   821.0    0.00 
  45    2:20   0.00   27.2    81    5.6   182     8.1   820.9    0.00 
  45    2:30   0.00   27.4    80    7.1   191     9.0   820.5    0.00 
  45    2:40   0.00   27.6    78    7.9   227    11.7   819.9    0.00 
  45    2:50   0.00   28.3    76   12.8   239    15.5   819.8    0.00 
  45    3:00   0.00   30.8    65   12.3   230    15.5   820.1    0.00 
  45    3:10   0.00   31.5    62    8.1   209    12.0   820.2    0.00 
  45    3:20   0.00   29.8    68    6.0   177     7.5   820.1    0.00 
  45    3:30   0.00   28.3    74    7.0   177     9.3   820.0    0.00 
  45    3:40   0.00   27.9    76    6.8   192     8.8   819.9    0.00 
  45    3:50   0.00   27.0    81    6.9   178     9.7   819.9    0.00 
  45    4:00   0.00   27.7    77    6.4   184     9.2   820.2    0.00 
  45    4:10   0.00   27.8    77    5.8   219     8.2   820.7    0.00 
  45    4:20   0.00   28.5    76    6.2   208     8.0   820.8    0.00 
  45    4:30   0.00   28.9    76    7.6   205     9.5   821.0    0.00 
  45    4:40   0.00   28.7    77    7.0   196     9.4   820.9    0.00 
  45    4:50   0.00   28.6    78    6.1   193     7.9   820.8    0.00 
  45    5:00   0.00   29.1    78    8.3   220    10.4   820.8    0.00 
  45    5:10   0.00   29.2    78    8.0   226     9.9   820.7    0.00 
  45    5:20   0.00   29.4    77    7.2   226     9.1   820.6    0.00 
  45    5:30   0.00   29.9    76    5.9   220     8.3   820.7    0.00 
  45    5:40   0.00   30.0    77    5.1   218     6.4   820.7    0.00 
  45    5:50   0.00   30.5    76    5.8   232     7.6   820.8    0.00 
  45    6:00   0.00   30.9    76    5.7   230     7.8   820.9    0.00 
  45    6:10   0.00   31.7    74    5.5   234     7.7   821.0    0.00 
  45    6:20   0.00   32.5    72    6.9   214     9.5   821.1    0.00 

Return to Reese River Valley graphs page.


Western Regional Climate Center,wrcc@dri.edu